SKU1740 SCSE-SCCF
Flight info
| Callsign | SKU1740 |
|---|---|
| Flight time | 1h 9m |
| Altitude | 33000 |
| Route | KILIN UQ802 PUNAP UT296 BUVSA/N0450F340 UT296 PAGUN UQ814 MARGU |
| Aircraft | A21N/M-SDE2E3FGIJ1J3J4RWXYZ/LB1 |
Departure
| Time | 2026-04-27 21:38 |
|---|---|
| Airport | La Florida Airport (SCSE) |
Arrival
| Time | 2026-04-27 22:47 |
|---|---|
| Airport | El Loa Airport (SCCF) |
| Time | Latitude | Longitude | Altitude | Speed | Heading |
|---|---|---|---|---|---|
| 2026-04-27 20:59 | -29.91694 | -71.20321 | 470 ft | 0 kts | 172° |
| 2026-04-27 21:30 | -29.91693 | -71.20321 | 469 ft | 2 kts | 172° |
| 2026-04-27 21:30 | -29.91669 | -71.20322 | 472 ft | 4 kts | 189° |
| 2026-04-27 21:30 | -29.91644 | -71.20319 | 470 ft | 4 kts | 157° |
| 2026-04-27 21:30 | -29.91640 | -71.20318 | 469 ft | 4 kts | 116° |
| 2026-04-27 21:31 | -29.91650 | -71.20291 | 471 ft | 2 kts | 115° |
| 2026-04-27 21:31 | -29.91650 | -71.20289 | 471 ft | 1 kts | 115° |
| 2026-04-27 21:34 | -29.91652 | -71.20285 | 471 ft | 2 kts | 115° |
| 2026-04-27 21:34 | -29.91664 | -71.20256 | 472 ft | 6 kts | 115° |
| 2026-04-27 21:34 | -29.91681 | -71.20198 | 472 ft | 10 kts | 86° |
| 2026-04-27 21:34 | -29.91633 | -71.20132 | 472 ft | 13 kts | 30° |
| 2026-04-27 21:35 | -29.91610 | -71.20038 | 471 ft | 16 kts | 119° |
| 2026-04-27 21:35 | -29.91664 | -71.19909 | 475 ft | 20 kts | 116° |
| 2026-04-27 21:35 | -29.91730 | -71.19757 | 474 ft | 23 kts | 116° |
| 2026-04-27 21:35 | -29.91807 | -71.19581 | 480 ft | 26 kts | 116° |
| 2026-04-27 21:36 | -29.91893 | -71.19382 | 486 ft | 29 kts | 116° |
| 2026-04-27 21:36 | -29.91984 | -71.19173 | 487 ft | 23 kts | 117° |
| 2026-04-27 21:36 | -29.92028 | -71.19112 | 485 ft | 8 kts | 138° |
| 2026-04-27 21:36 | -29.92047 | -71.19057 | 488 ft | 10 kts | 33° |
| 2026-04-27 21:37 | -29.92013 | -71.19096 | 487 ft | 0 kts | 304° |
| 2026-04-27 21:37 | -29.91970 | -71.19198 | 484 ft | 46 kts | 295° |
| 2026-04-27 21:37 | -29.91705 | -71.19814 | 472 ft | 122 kts | 296° |
| 2026-04-27 21:37 | -29.91269 | -71.20825 | 739 ft | 147 kts | 295° |
| 2026-04-27 21:38 | -29.90828 | -71.21879 | 1392 ft | 145 kts | 293° |
| 2026-04-27 21:38 | -29.90374 | -71.22953 | 1893 ft | 157 kts | 295° |
| 2026-04-27 21:38 | -29.89859 | -71.24140 | 2407 ft | 173 kts | 295° |
| 2026-04-27 21:38 | -29.89204 | -71.25413 | 2813 ft | 200 kts | 313° |
| 2026-04-27 21:39 | -29.87928 | -71.26172 | 3303 ft | 221 kts | 351° |
| 2026-04-27 21:39 | -29.86338 | -71.25896 | 3730 ft | 247 kts | 21° |
| 2026-04-27 21:39 | -29.84703 | -71.25043 | 4271 ft | 266 kts | 25° |
| 2026-04-27 21:39 | -29.83004 | -71.24116 | 5020 ft | 273 kts | 25° |
| 2026-04-27 21:40 | -29.81265 | -71.23189 | 5869 ft | 277 kts | 24° |
| 2026-04-27 21:40 | -29.79497 | -71.22264 | 6681 ft | 281 kts | 24° |
| 2026-04-27 21:40 | -29.77702 | -71.21338 | 7475 ft | 285 kts | 24° |
| 2026-04-27 21:40 | -29.75876 | -71.20406 | 8278 ft | 288 kts | 24° |
| 2026-04-27 21:41 | -29.74034 | -71.19466 | 9054 ft | 291 kts | 24° |
| 2026-04-27 21:41 | -29.72188 | -71.18527 | 9785 ft | 295 kts | 23° |
| 2026-04-27 21:41 | -29.70275 | -71.17557 | 10361 ft | 307 kts | 23° |
| 2026-04-27 21:41 | -29.68257 | -71.16537 | 10683 ft | 328 kts | 23° |
| 2026-04-27 21:42 | -29.66078 | -71.15527 | 10976 ft | 347 kts | 18° |
| 2026-04-27 21:42 | -29.63751 | -71.14631 | 11508 ft | 357 kts | 17° |
| 2026-04-27 21:42 | -29.61384 | -71.13735 | 12232 ft | 360 kts | 17° |
| 2026-04-27 21:42 | -29.58989 | -71.12820 | 12981 ft | 364 kts | 17° |
| 2026-04-27 21:43 | -29.56580 | -71.11896 | 13695 ft | 368 kts | 17° |
| 2026-04-27 21:43 | -29.54136 | -71.10955 | 14392 ft | 372 kts | 17° |
| 2026-04-27 21:43 | -29.51663 | -71.10007 | 15085 ft | 376 kts | 17° |
| 2026-04-27 21:43 | -29.49160 | -71.09048 | 15752 ft | 381 kts | 17° |
| 2026-04-27 21:44 | -29.46629 | -71.08090 | 16418 ft | 384 kts | 17° |
| 2026-04-27 21:44 | -29.44110 | -71.07135 | 17051 ft | 388 kts | 17° |
| 2026-04-27 21:44 | -29.41526 | -71.06163 | 17669 ft | 392 kts | 17° |
| 2026-04-27 21:44 | -29.38886 | -71.05168 | 18269 ft | 396 kts | 17° |
| 2026-04-27 21:45 | -29.36287 | -71.04177 | 18852 ft | 400 kts | 17° |
| 2026-04-27 21:45 | -29.33635 | -71.03154 | 19401 ft | 405 kts | 17° |
| 2026-04-27 21:45 | -29.30915 | -71.02115 | 19947 ft | 409 kts | 17° |
| 2026-04-27 21:45 | -29.28223 | -71.01101 | 20477 ft | 413 kts | 15° |
| 2026-04-27 21:46 | -29.25404 | -71.00424 | 20985 ft | 415 kts | 4° |
| 2026-04-27 21:46 | -29.22519 | -71.00139 | 21511 ft | 419 kts | 2° |
| 2026-04-27 21:46 | -29.19598 | -70.99893 | 22028 ft | 423 kts | 2° |
| 2026-04-27 21:46 | -29.16652 | -70.99638 | 22535 ft | 427 kts | 2° |
| 2026-04-27 21:47 | -29.13670 | -70.99365 | 23027 ft | 431 kts | 2° |
| 2026-04-27 21:47 | -29.10673 | -70.99086 | 23501 ft | 435 kts | 2° |
| 2026-04-27 21:47 | -29.07641 | -70.98803 | 23993 ft | 438 kts | 2° |
| 2026-04-27 21:47 | -29.04587 | -70.98518 | 24440 ft | 441 kts | 2° |
| 2026-04-27 21:48 | -29.01514 | -70.98230 | 24880 ft | 445 kts | 2° |
| 2026-04-27 21:48 | -28.98422 | -70.97939 | 25301 ft | 448 kts | 2° |
| 2026-04-27 21:48 | -28.95302 | -70.97646 | 25715 ft | 450 kts | 2° |
| 2026-04-27 21:48 | -28.92167 | -70.97356 | 26130 ft | 453 kts | 2° |
| 2026-04-27 21:49 | -28.89049 | -70.97065 | 26518 ft | 456 kts | 2° |
| 2026-04-27 21:49 | -28.85885 | -70.96767 | 26899 ft | 458 kts | 2° |
| 2026-04-27 21:49 | -28.82689 | -70.96467 | 27274 ft | 460 kts | 1° |
| 2026-04-27 21:49 | -28.79488 | -70.96167 | 27630 ft | 463 kts | 1° |
| 2026-04-27 21:50 | -28.76274 | -70.95868 | 27970 ft | 466 kts | 1° |
| 2026-04-27 21:50 | -28.73031 | -70.95567 | 28323 ft | 468 kts | 1° |
| 2026-04-27 21:50 | -28.69780 | -70.95265 | 28641 ft | 470 kts | 1° |
| 2026-04-27 21:50 | -28.66509 | -70.94960 | 28999 ft | 472 kts | 0° |
| 2026-04-27 21:51 | -28.63241 | -70.94656 | 29504 ft | 470 kts | 0° |
| 2026-04-27 21:51 | -28.59977 | -70.94351 | 29965 ft | 469 kts | 0° |
| 2026-04-27 21:51 | -28.56729 | -70.94046 | 30416 ft | 468 kts | 360° |
| 2026-04-27 21:51 | -28.53491 | -70.93744 | 30823 ft | 467 kts | 359° |
| 2026-04-27 21:52 | -28.50255 | -70.93444 | 31207 ft | 466 kts | 359° |
| 2026-04-27 21:52 | -28.47026 | -70.93129 | 31603 ft | 465 kts | 359° |
| 2026-04-27 21:52 | -28.43810 | -70.92789 | 32008 ft | 464 kts | 359° |
| 2026-04-27 21:52 | -28.40601 | -70.92449 | 32372 ft | 463 kts | 359° |
| 2026-04-27 21:53 | -28.37432 | -70.92117 | 32705 ft | 462 kts | 359° |
| 2026-04-27 21:53 | -28.34219 | -70.91782 | 33032 ft | 463 kts | 358° |
| 2026-04-27 21:53 | -28.27851 | -70.90596 | 33104 ft | 472 kts | 12° |
| 2026-04-27 21:54 | -28.24833 | -70.89040 | 33101 ft | 483 kts | 25° |
| 2026-04-27 21:54 | -28.22038 | -70.86881 | 33100 ft | 488 kts | 32° |
| 2026-04-27 21:54 | -28.16663 | -70.82134 | 33084 ft | 490 kts | 32° |
| 2026-04-27 21:55 | -28.11260 | -70.77516 | 33083 ft | 489 kts | 31° |
| 2026-04-27 21:55 | -28.05775 | -70.72924 | 33086 ft | 490 kts | 31° |
| 2026-04-27 21:56 | -27.97556 | -70.65995 | 33074 ft | 491 kts | 31° |
| 2026-04-27 21:57 | -27.92066 | -70.61369 | 33078 ft | 493 kts | 30° |
| 2026-04-27 21:57 | -27.86561 | -70.56742 | 33080 ft | 493 kts | 30° |
| 2026-04-27 21:58 | -27.81053 | -70.52112 | 33079 ft | 493 kts | 30° |
| 2026-04-27 21:58 | -27.75570 | -70.47503 | 33079 ft | 493 kts | 30° |
| 2026-04-27 21:59 | -27.70065 | -70.42897 | 33080 ft | 493 kts | 30° |
| 2026-04-27 21:59 | -27.64553 | -70.38281 | 33083 ft | 493 kts | 30° |
| 2026-04-27 22:00 | -27.59041 | -70.33678 | 33092 ft | 493 kts | 30° |
| 2026-04-27 22:00 | -27.53557 | -70.29097 | 33084 ft | 493 kts | 30° |
| 2026-04-27 22:01 | -27.48055 | -70.24509 | 33088 ft | 492 kts | 30° |
| 2026-04-27 22:01 | -27.42529 | -70.19912 | 33097 ft | 493 kts | 29° |
| 2026-04-27 22:02 | -27.37038 | -70.15340 | 33094 ft | 494 kts | 29° |
| 2026-04-27 22:02 | -27.31511 | -70.10750 | 33092 ft | 493 kts | 29° |
| 2026-04-27 22:03 | -27.25878 | -70.06385 | 33136 ft | 485 kts | 20° |
| 2026-04-27 22:03 | -27.22843 | -70.04762 | 33403 ft | 482 kts | 16° |
| 2026-04-27 22:03 | -27.19779 | -70.03239 | 33715 ft | 481 kts | 15° |
| 2026-04-27 22:03 | -27.16717 | -70.01728 | 33970 ft | 481 kts | 15° |
| 2026-04-27 22:04 | -27.13641 | -70.00201 | 34117 ft | 484 kts | 15° |
| 2026-04-27 22:04 | -27.07488 | -69.97119 | 34111 ft | 484 kts | 15° |
| 2026-04-27 22:05 | -27.01324 | -69.94024 | 34096 ft | 485 kts | 15° |
| 2026-04-27 22:05 | -26.95176 | -69.90949 | 34084 ft | 484 kts | 15° |
| 2026-04-27 22:06 | -26.89057 | -69.87894 | 34086 ft | 485 kts | 14° |
| 2026-04-27 22:06 | -26.82886 | -69.84816 | 34091 ft | 485 kts | 14° |
| 2026-04-27 22:07 | -26.76704 | -69.81732 | 34094 ft | 485 kts | 14° |
| 2026-04-27 22:07 | -26.70529 | -69.78655 | 34090 ft | 486 kts | 14° |
| 2026-04-27 22:08 | -26.64375 | -69.75597 | 34091 ft | 486 kts | 14° |
| 2026-04-27 22:08 | -26.58179 | -69.72520 | 34103 ft | 486 kts | 14° |
| 2026-04-27 22:09 | -26.51998 | -69.69448 | 34100 ft | 486 kts | 14° |
| 2026-04-27 22:09 | -26.45818 | -69.66382 | 34101 ft | 487 kts | 14° |
| 2026-04-27 22:10 | -26.39626 | -69.63316 | 34099 ft | 486 kts | 14° |
| 2026-04-27 22:10 | -26.33471 | -69.60279 | 34102 ft | 486 kts | 14° |
| 2026-04-27 22:11 | -26.27275 | -69.57217 | 34100 ft | 487 kts | 14° |
| 2026-04-27 22:11 | -26.22122 | -69.54675 | 34098 ft | 487 kts | 14° |
| 2026-04-27 22:12 | -26.15930 | -69.51618 | 34102 ft | 486 kts | 14° |
| 2026-04-27 22:12 | -26.09739 | -69.48560 | 34105 ft | 486 kts | 14° |
| 2026-04-27 22:13 | -26.03546 | -69.45526 | 34111 ft | 486 kts | 14° |
| 2026-04-27 22:13 | -25.97382 | -69.42487 | 34105 ft | 486 kts | 14° |
| 2026-04-27 22:14 | -25.91197 | -69.39446 | 34112 ft | 486 kts | 14° |
| 2026-04-27 22:14 | -25.85001 | -69.36407 | 34110 ft | 486 kts | 14° |
| 2026-04-27 22:15 | -25.78809 | -69.33375 | 34114 ft | 486 kts | 14° |
| 2026-04-27 22:15 | -25.72622 | -69.30367 | 34126 ft | 486 kts | 14° |
| 2026-04-27 22:16 | -25.66425 | -69.27344 | 34130 ft | 485 kts | 14° |
| 2026-04-27 22:16 | -25.60229 | -69.24337 | 34130 ft | 485 kts | 13° |
| 2026-04-27 22:16 | -25.57070 | -69.23139 | 34127 ft | 471 kts | 3° |
| 2026-04-27 22:17 | -25.53880 | -69.22467 | 34131 ft | 464 kts | 359° |
| 2026-04-27 22:17 | -25.47542 | -69.21420 | 34134 ft | 464 kts | 358° |
| 2026-04-27 22:18 | -25.41145 | -69.20329 | 34142 ft | 465 kts | 359° |
| 2026-04-27 22:18 | -25.34768 | -69.19209 | 34143 ft | 464 kts | 359° |
| 2026-04-27 22:19 | -25.28382 | -69.18094 | 34152 ft | 464 kts | 359° |
| 2026-04-27 22:19 | -25.22007 | -69.16982 | 34133 ft | 463 kts | 359° |
| 2026-04-27 22:20 | -25.15639 | -69.15873 | 34139 ft | 463 kts | 359° |
| 2026-04-27 22:20 | -25.09307 | -69.14740 | 34145 ft | 463 kts | 359° |
| 2026-04-27 22:21 | -25.02939 | -69.13626 | 34144 ft | 463 kts | 359° |
| 2026-04-27 22:21 | -24.96574 | -69.12523 | 34150 ft | 462 kts | 359° |
| 2026-04-27 22:22 | -24.90216 | -69.11424 | 34151 ft | 462 kts | 359° |
| 2026-04-27 22:22 | -24.83856 | -69.10315 | 34154 ft | 462 kts | 359° |
| 2026-04-27 22:23 | -24.77496 | -69.09187 | 34159 ft | 462 kts | 360° |
| 2026-04-27 22:23 | -24.71184 | -69.08045 | 34172 ft | 463 kts | 0° |
| 2026-04-27 22:24 | -24.64827 | -69.06928 | 34170 ft | 461 kts | 359° |
| 2026-04-27 22:24 | -24.58473 | -69.05834 | 34171 ft | 462 kts | 360° |
| 2026-04-27 22:25 | -24.52171 | -69.04722 | 34171 ft | 461 kts | 0° |
| 2026-04-27 22:25 | -24.45824 | -69.03594 | 34172 ft | 462 kts | 0° |
| 2026-04-27 22:26 | -24.39488 | -69.02467 | 34178 ft | 460 kts | 0° |
| 2026-04-27 22:26 | -24.33158 | -69.01344 | 34178 ft | 460 kts | 0° |
| 2026-04-27 22:27 | -24.26841 | -69.00221 | 34179 ft | 457 kts | 0° |
| 2026-04-27 22:27 | -24.20601 | -68.99113 | 34180 ft | 452 kts | 0° |
| 2026-04-27 22:28 | -24.14350 | -68.98025 | 34197 ft | 460 kts | 0° |
| 2026-04-27 22:28 | -24.08026 | -68.96900 | 34192 ft | 460 kts | 0° |
| 2026-04-27 22:29 | -24.01727 | -68.95787 | 33912 ft | 457 kts | 0° |
| 2026-04-27 22:29 | -23.98566 | -68.95246 | 33616 ft | 460 kts | 0° |
| 2026-04-27 22:29 | -23.95396 | -68.94699 | 33224 ft | 459 kts | 1° |
| 2026-04-27 22:29 | -23.92243 | -68.94143 | 32615 ft | 459 kts | 1° |
| 2026-04-27 22:30 | -23.89093 | -68.93587 | 31978 ft | 458 kts | 1° |
| 2026-04-27 22:30 | -23.85950 | -68.93035 | 31385 ft | 457 kts | 1° |
| 2026-04-27 22:30 | -23.82806 | -68.92479 | 30820 ft | 455 kts | 1° |
| 2026-04-27 22:30 | -23.79694 | -68.91929 | 30256 ft | 453 kts | 1° |
| 2026-04-27 22:31 | -23.76589 | -68.91379 | 29701 ft | 451 kts | 1° |
| 2026-04-27 22:31 | -23.73541 | -68.90840 | 29122 ft | 449 kts | 1° |
| 2026-04-27 22:31 | -23.70462 | -68.90301 | 28554 ft | 447 kts | 1° |
| 2026-04-27 22:31 | -23.67401 | -68.89770 | 27999 ft | 444 kts | 1° |
| 2026-04-27 22:32 | -23.64370 | -68.89245 | 27444 ft | 442 kts | 1° |
| 2026-04-27 22:32 | -23.61346 | -68.88716 | 26882 ft | 440 kts | 2° |
| 2026-04-27 22:32 | -23.58334 | -68.88179 | 26316 ft | 438 kts | 2° |
| 2026-04-27 22:32 | -23.55325 | -68.87646 | 25779 ft | 434 kts | 2° |
| 2026-04-27 22:33 | -23.52348 | -68.87126 | 25255 ft | 431 kts | 2° |
| 2026-04-27 22:33 | -23.49396 | -68.86609 | 24706 ft | 429 kts | 2° |
| 2026-04-27 22:33 | -23.46455 | -68.86098 | 24145 ft | 427 kts | 2° |
| 2026-04-27 22:33 | -23.43525 | -68.85586 | 23599 ft | 425 kts | 3° |
| 2026-04-27 22:34 | -23.40610 | -68.85076 | 23059 ft | 423 kts | 3° |
| 2026-04-27 22:34 | -23.37717 | -68.84570 | 22503 ft | 421 kts | 3° |
| 2026-04-27 22:34 | -23.34815 | -68.84137 | 21924 ft | 417 kts | 358° |
| 2026-04-27 22:34 | -23.31963 | -68.84001 | 21362 ft | 413 kts | 356° |
| 2026-04-27 22:35 | -23.29065 | -68.83910 | 20782 ft | 408 kts | 356° |
| 2026-04-27 22:35 | -23.26242 | -68.83822 | 20266 ft | 403 kts | 356° |
| 2026-04-27 22:35 | -23.23489 | -68.83731 | 19769 ft | 398 kts | 356° |
| 2026-04-27 22:35 | -23.20743 | -68.83640 | 19285 ft | 392 kts | 356° |
| 2026-04-27 22:36 | -23.18033 | -68.83549 | 18795 ft | 388 kts | 356° |
| 2026-04-27 22:36 | -23.15324 | -68.83459 | 18059 ft | 390 kts | 357° |
| 2026-04-27 22:36 | -23.12615 | -68.83367 | 17521 ft | 387 kts | 357° |
| 2026-04-27 22:36 | -23.09942 | -68.83276 | 17038 ft | 382 kts | 357° |
| 2026-04-27 22:37 | -23.07305 | -68.83187 | 16586 ft | 375 kts | 358° |
| 2026-04-27 22:37 | -23.04720 | -68.83099 | 16165 ft | 369 kts | 358° |
| 2026-04-27 22:37 | -23.02176 | -68.83013 | 15737 ft | 363 kts | 359° |
| 2026-04-27 22:37 | -22.99666 | -68.82912 | 15328 ft | 362 kts | 0° |
| 2026-04-27 22:38 | -22.97153 | -68.82721 | 14937 ft | 362 kts | 1° |
| 2026-04-27 22:38 | -22.94672 | -68.82513 | 14528 ft | 361 kts | 1° |
| 2026-04-27 22:38 | -22.92163 | -68.82298 | 14104 ft | 362 kts | 1° |
| 2026-04-27 22:38 | -22.89650 | -68.82082 | 13682 ft | 360 kts | 2° |
| 2026-04-27 22:39 | -22.87182 | -68.81870 | 13467 ft | 349 kts | 2° |
| 2026-04-27 22:39 | -22.84818 | -68.81667 | 13434 ft | 332 kts | 2° |
| 2026-04-27 22:39 | -22.82574 | -68.81475 | 13434 ft | 315 kts | 2° |
| 2026-04-27 22:39 | -22.80434 | -68.81292 | 13277 ft | 304 kts | 2° |
| 2026-04-27 22:40 | -22.78329 | -68.81115 | 12880 ft | 302 kts | 1° |
| 2026-04-27 22:40 | -22.76229 | -68.80939 | 12456 ft | 302 kts | 2° |
| 2026-04-27 22:40 | -22.74137 | -68.80761 | 12027 ft | 301 kts | 2° |
| 2026-04-27 22:40 | -22.72043 | -68.80584 | 11613 ft | 301 kts | 2° |
| 2026-04-27 22:41 | -22.69991 | -68.80409 | 11376 ft | 294 kts | 2° |
| 2026-04-27 22:41 | -22.68011 | -68.80241 | 11394 ft | 277 kts | 2° |
| 2026-04-27 22:41 | -22.66157 | -68.80083 | 11421 ft | 257 kts | 1° |
| 2026-04-27 22:41 | -22.64468 | -68.79862 | 11488 ft | 232 kts | 9° |
| 2026-04-27 22:42 | -22.62961 | -68.79318 | 11276 ft | 226 kts | 18° |
| 2026-04-27 22:42 | -22.61505 | -68.78706 | 11231 ft | 223 kts | 18° |
| 2026-04-27 22:42 | -22.60049 | -68.78106 | 11247 ft | 224 kts | 18° |
| 2026-04-27 22:42 | -22.58590 | -68.77507 | 11174 ft | 224 kts | 18° |
| 2026-04-27 22:43 | -22.57131 | -68.76956 | 10834 ft | 219 kts | 8° |
| 2026-04-27 22:43 | -22.55634 | -68.76863 | 10477 ft | 213 kts | 351° |
| 2026-04-27 22:43 | -22.54224 | -68.77198 | 10126 ft | 208 kts | 337° |
| 2026-04-27 22:43 | -22.52917 | -68.77886 | 9938 ft | 205 kts | 323° |
| 2026-04-27 22:44 | -22.51886 | -68.78906 | 9669 ft | 202 kts | 308° |
| 2026-04-27 22:44 | -22.51134 | -68.80149 | 9363 ft | 192 kts | 295° |
| 2026-04-27 22:44 | -22.50694 | -68.81456 | 9098 ft | 178 kts | 283° |
| 2026-04-27 22:44 | -22.50536 | -68.82693 | 8856 ft | 154 kts | 274° |
| 2026-04-27 22:45 | -22.50479 | -68.83814 | 8617 ft | 147 kts | 275° |
| 2026-04-27 22:45 | -22.50400 | -68.84925 | 8412 ft | 149 kts | 275° |
| 2026-04-27 22:45 | -22.50326 | -68.86041 | 8201 ft | 149 kts | 274° |
| 2026-04-27 22:45 | -22.50251 | -68.87154 | 7984 ft | 148 kts | 275° |
| 2026-04-27 22:46 | -22.50150 | -68.88270 | 7786 ft | 149 kts | 276° |
| 2026-04-27 22:46 | -22.50078 | -68.89383 | 7619 ft | 142 kts | 274° |
| 2026-04-27 22:46 | -22.50012 | -68.90319 | 7546 ft | 101 kts | 274° |
| 2026-04-27 22:46 | -22.49971 | -68.90889 | 7502 ft | 53 kts | 274° |
| 2026-04-27 22:47 | -22.49941 | -68.91104 | 7489 ft | 20 kts | 290° |
| 2026-04-27 22:47 | -22.49868 | -68.91215 | 7479 ft | 18 kts | 311° |
| 2026-04-27 22:47 | -22.49788 | -68.91315 | 7473 ft | 17 kts | 4° |
| 2026-04-27 22:47 | -22.49776 | -68.91198 | 7479 ft | 19 kts | 93° |
| 2026-04-27 22:48 | -22.49783 | -68.91045 | 7490 ft | 22 kts | 93° |
| 2026-04-27 22:48 | -22.49741 | -68.90947 | 7492 ft | 15 kts | 1° |
| 2026-04-27 22:48 | -22.49721 | -68.90946 | 7494 ft | 0 kts | 4° |
| 2026-04-27 22:48 | -22.49720 | -68.90946 | 7495 ft | 1 kts | 4° |
| 2026-04-27 22:49 | -22.49700 | -68.90944 | 7491 ft | 4 kts | 5° |
| 2026-04-27 22:49 | -22.49659 | -68.90934 | 7493 ft | 8 kts | 38° |
| 2026-04-27 22:49 | -22.49652 | -68.90856 | 7495 ft | 13 kts | 95° |
| 2026-04-27 22:49 | -22.49620 | -68.90799 | 7500 ft | 4 kts | 1° |
| 2026-04-27 22:50 | -22.49596 | -68.90798 | 7498 ft | 0 kts | 4° |